Latest Weather Observations for Cape Bruny AWS

IDT60801

Issued at 10:35 pm EST Thursday 24 April 2014 (issued every 30 minutes, with the page automatically refreshed every 10 minutes)

About weather observations | Map of weather stations | Latest weather observations for TAS | Other Formats
Station Details ID: 094198 Name: CAPE BRUNY (CAPE BRUNY) Lat: -43.49 Lon: 147.14 Height: 59.7 m
Data from the previous 72 hours. | See also: Recent months at Cape Bruny AWS
Date/Time
EST
Temp
°C
App
Temp
°C
Dew
Point
Rel
Hum
%
Delta-T
°C
Wind Press
QNH
hPa
Press
MSL
hPa
Rain
since 9 am
mm
Dir
 
Spd
km/h
Gust
km/h
Spd
kts
Gust
kts
24/10:30pm 9.7 2.7 4.1 68 2.5 WNW 30 41 16 22 1016.1 - 1.4
24/10:00pm 9.4 3.4 3.4 66 2.6 WNW 24 35 13 19 1015.7 - 1.4
24/09:30pm 9.4 2.3 3.6 67 2.5 WNW 30 37 16 20 1015.3 - 1.4
24/09:00pm 9.6 2.6 2.0 59 3.2 NW 28 35 15 19 1015.1 1015.1 1.4
24/08:30pm 9.8 2.6 3.1 63 2.9 W 30 39 16 21 1014.4 - 1.4
24/08:10pm 10.1 0.8 3.2 62 3.0 W 41 59 22 32 1013.9 - 1.4
24/08:00pm 10.1 0.5 3.2 62 3.0 W 43 57 23 31 1013.6 - 1.4
24/07:30pm 10.0 1.2 3.7 65 2.8 W 39 48 21 26 1013.6 - 1.4
24/07:00pm 9.7 1.0 4.1 68 2.5 W 39 56 21 30 1013.0 - 1.4
24/06:30pm 9.3 -1.2 3.9 69 2.4 W 48 63 26 34 1011.8 - 1.4
24/06:20pm 9.0 -1.8 4.2 72 2.1 W 50 69 27 37 1011.6 - 1.4
24/06:00pm 8.2 -2.6 4.2 76 1.7 W 50 63 27 34 1011.5 1011.5 1.4
24/05:30pm 7.7 -5.3 3.4 74 1.8 W 61 76 33 41 1011.2 - 1.2
24/05:00pm 7.9 -4.1 4.5 79 1.5 W 57 85 31 46 1010.6 - 0.8
24/04:54pm 8.2 -4.0 3.9 74 1.9 W 57 76 31 41 1010.2 - 0.8
24/04:44pm 8.2 -5.2 3.5 72 2.0 W 63 72 34 39 1010.1 - 0.8
24/04:30pm 8.2 -0.9 4.0 75 1.8 W 41 61 22 33 1010.0 - 0.8
24/04:09pm 10.0 -0.8 2.1 58 3.3 W 48 67 26 36 1009.9 - 0.8
24/04:00pm 10.2 -2.2 1.6 55 3.6 W 56 69 30 37 1009.4 - 0.8
24/03:35pm 9.8 -2.1 2.2 59 3.2 W 54 72 29 39 1008.7 - 0.6
24/03:30pm 10.1 -1.2 3.2 62 3.0 W 52 65 28 35 1008.6 - 0.6
24/03:08pm 10.1 -0.8 3.4 63 2.9 W 50 69 27 37 1008.4 - 0.6
24/03:00pm 11.0 -0.3 3.3 59 3.4 W 52 63 28 34 1008.3 1008.3 0.6
24/02:30pm 9.4 0.3 3.8 68 2.5 W 41 59 22 32 1008.0 - 0.6
24/02:28pm 9.8 0.9 5.2 73 2.1 W 41 59 22 32 1008.0 - 0.6
24/02:00pm 7.9 -0.6 5.0 82 1.3 W 39 72 21 39 1007.9 - 0.6
24/01:30pm 9.5 -3.1 3.7 67 2.5 W 59 85 32 46 1006.9 - 0.2
24/01:11pm 8.9 -4.9 3.5 69 2.3 W 65 83 35 45 1006.4 - 0.2
24/01:07pm 8.6 -6.1 2.6 66 2.5 W 69 83 37 45 1006.1 - 0.2
24/01:00pm 10.1 -0.4 1.7 56 3.5 W 46 65 25 35 1006.1 - 0.0
24/12:51pm 10.6 0.3 4.5 66 2.7 WSW 48 67 26 36 1006.1 - 0.0
24/12:39pm 11.4 -0.3 3.2 57 3.6 W 54 83 29 45 1006.0 - 0.0
24/12:30pm 10.9 -4.4 2.2 55 3.7 W 72 85 39 46 1005.7 - 0.0
24/12:28pm 11.1 -4.7 1.6 52 4.0 W 74 85 40 46 1005.6 - 0.0
24/12:00pm 11.0 0.2 2.1 54 3.8 W 48 76 26 41 1005.4 1005.4 0.0
24/11:36am 11.1 0.0 2.7 56 3.6 W 50 70 27 38 1005.0 - 0.0
24/11:30am 11.4 0.2 4.2 61 3.3 W 52 67 28 36 1004.8 - 0.0
24/11:00am 9.5 -2.7 3.7 67 2.5 W 57 83 31 45 1004.3 - 0.0
24/10:57am 10.3 -0.5 4.2 66 2.7 W 50 83 27 45 1004.2 - 0.0
24/10:41am 10.5 0.5 4.4 66 2.7 W 46 65 25 35 1004.1 - 0.0
24/10:30am 9.9 -1.6 4.3 68 2.5 W 54 67 29 36 1003.9 - 0.0
24/10:24am 9.7 -0.2 4.9 72 2.2 W 46 74 25 40 1003.9 - 0.0
24/10:19am 8.9 -4.6 4.7 75 1.9 W 65 74 35 40 1003.9 - 0.0
24/10:04am 11.0 1.7 5.7 70 2.5 W 44 70 24 38 1003.7 - 0.0
24/10:00am 10.7 1.4 5.7 71 2.3 W 44 57 24 31 1003.5 - 0.0
24/09:43am 9.6 -0.4 4.4 70 2.3 W 46 69 25 37 1003.1 - 0.0
24/09:30am 9.2 -1.6 4.0 70 2.3 W 50 57 27 31 1003.0 - 0.0
24/09:00am 8.7 -1.9 4.9 77 1.7 W 50 70 27 38 1002.7 1002.6 3.2
24/08:49am 10.2 0.0 5.0 70 2.4 W 48 67 26 36 1002.4 - 2.6
24/08:30am 10.4 -0.2 5.0 69 2.5 W 50 61 27 33 1002.1 - 2.6
24/08:05am 10.2 1.3 5.2 71 2.3 W 41 65 22 35 1001.6 - 2.6
24/08:00am 10.2 2.5 5.4 72 2.2 W 35 52 19 28 1001.6 - 2.6
24/07:32am 9.5 2.4 5.5 76 1.8 W 32 50 17 27 1000.6 - 2.6
24/07:30am 9.4 2.7 5.4 76 1.8 W 30 43 16 23 1000.5 - 2.6
24/07:13am 9.1 1.7 5.1 76 1.8 W 33 52 18 28 1000.3 - 2.6
24/07:00am 9.1 2.8 5.8 80 1.5 W 28 35 15 19 1000.4 - 2.6
24/06:39am 9.4 3.2 6.3 81 1.4 W 28 46 15 25 1000.1 - 2.6
24/06:30am 9.7 3.5 6.1 78 1.7 W 28 39 15 21 1000.2 - 2.6
24/06:00am 9.1 3.1 5.3 77 1.7 WNW 26 39 14 21 999.5 999.5 2.6
24/05:30am 9.1 2.1 5.8 80 1.5 WNW 32 43 17 23 999.4 - 2.6
24/05:00am 9.2 2.3 6.3 82 1.3 WNW 32 41 17 22 999.5 - 2.6
24/04:39am 9.6 1.4 6.5 81 1.4 WNW 39 57 21 31 999.2 - 2.6
24/04:30am 9.7 2.3 6.6 81 1.5 WNW 35 50 19 27 999.2 - 2.4
24/04:00am 10.3 3.9 8.6 89 0.8 W 32 46 17 25 998.8 - 2.2
24/03:52am 10.3 2.5 8.4 88 0.9 W 39 57 21 31 998.6 - 2.0
24/03:38am 11.4 3.4 7.5 77 1.9 W 39 48 21 26 998.2 - 0.2
24/03:30am 13.2 9.5 8.1 71 2.5 WNW 17 20 9 11 997.4 - 0.0
24/03:00am 13.5 9.6 7.1 65 3.1 NNW 17 24 9 13 997.3 997.3 0.0
24/02:30am 13.5 8.6 6.8 64 3.2 N 22 37 12 20 997.7 - 0.0
24/02:00am 13.2 8.3 7.0 66 3.0 N 22 33 12 18 998.7 - 0.0
24/01:30am 13.3 8.3 6.4 63 3.3 NNW 22 30 12 16 999.7 - 0.0
24/01:00am 13.3 7.8 5.7 60 3.6 NNW 24 35 13 19 1000.4 - 0.0
24/12:30am 13.0 8.0 6.4 64 3.2 NNW 22 30 12 16 1000.9 - 0.0
24/12:00am 12.9 7.8 6.0 63 3.3 N 22 33 12 18 1001.2 1001.2 0.0
 
Date/Time
EST
Temp
°C
App
Temp
°C
Dew
Point
Rel
Hum
%
Delta-T
°C
Wind Press
QNH
hPa
Press
MSL
hPa
Rain
since 9 am
mm
Dir
 
Spd
km/h
Gust
km/h
Spd
kts
Gust
kts
23/11:30pm 13.3 8.2 5.9 61 3.5 N 22 32 12 17 1001.5 - 0.0
23/11:00pm 12.3 9.7 6.1 66 2.9 ENE 9 15 5 8 1002.4 - 0.0
23/10:30pm 12.3 9.3 5.9 65 3.0 E 11 15 6 8 1003.0 - 0.0
23/10:00pm 12.8 9.7 5.7 62 3.3 NE 11 17 6 9 1003.8 - 0.0
23/09:30pm 12.8 9.7 5.7 62 3.3 N 11 19 6 10 1004.6 - 0.0
23/09:00pm 13.3 8.9 5.0 57 3.9 N 17 20 9 11 1004.8 1004.8 0.0
23/08:30pm 13.4 8.7 5.3 58 3.8 N 19 26 10 14 1005.1 - 0.0
23/08:00pm 12.8 9.5 6.2 64 3.1 N 13 20 7 11 1005.7 - 0.0
23/07:30pm 12.7 9.8 6.7 67 2.9 N 11 15 6 8 1006.2 - 0.0
23/07:00pm 12.8 9.5 6.4 65 3.1 NNW 13 19 7 10 1006.4 - 0.0
23/06:30pm 13.2 10.3 6.3 63 3.3 N 11 19 6 10 1006.5 - 0.0
23/06:00pm 13.0 10.2 7.0 67 2.9 N 11 15 6 8 1006.7 1006.7 0.0
23/05:30pm 13.5 10.6 6.6 63 3.3 N 11 15 6 8 1006.9 - 0.0
23/05:00pm 14.4 10.3 6.0 57 4.0 NNW 17 28 9 15 1007.2 - 0.0
23/04:30pm 14.1 10.0 6.2 59 3.8 NNW 17 22 9 12 1007.4 - 0.0
23/04:00pm 14.2 10.1 6.1 58 3.9 NNW 17 28 9 15 1007.8 - 0.0
23/03:30pm 14.0 10.6 6.1 59 3.8 NNW 13 19 7 10 1008.0 - 0.0
23/03:00pm 14.0 10.3 6.1 59 3.8 N 15 24 8 13 1008.4 1008.4 0.0
23/02:30pm 14.1 11.0 7.2 63 3.4 N 13 20 7 11 1008.6 - 0.0
23/02:00pm 14.5 10.9 6.8 60 3.8 NNE 15 24 8 13 1009.1 - 0.0
23/01:30pm 14.4 10.5 7.0 61 3.6 N 17 24 9 13 1009.5 - 0.0
23/01:00pm 13.5 9.4 6.4 62 3.4 N 17 24 9 13 1009.9 - 0.0
23/12:30pm 13.7 9.7 6.6 62 3.4 NNE 17 26 9 14 1010.1 - 0.0
23/12:00pm 13.6 9.5 6.0 60 3.6 NNE 17 24 9 13 1010.6 1010.6 0.0
23/11:30am 13.6 9.5 6.0 60 3.6 N 17 28 9 15 1011.3 - 0.0
23/11:00am 13.2 8.7 6.1 62 3.4 N 19 28 10 15 1011.4 - 0.0
23/10:30am 12.3 7.8 5.9 65 3.0 N 19 30 10 16 1011.7 - 0.0
23/10:00am 11.6 7.4 5.9 68 2.7 NNE 17 26 9 14 1012.1 - 0.0
23/09:30am 11.3 6.8 6.2 71 2.4 N 19 28 10 15 1012.5 - 0.0
23/09:00am 11.3 7.0 5.2 66 2.8 N 17 28 9 15 1012.8 1012.8 0.4
23/08:30am 11.1 6.5 5.4 68 2.6 N 19 26 10 14 1012.9 - 0.4
23/08:00am 10.7 6.8 5.3 69 2.5 N 15 24 8 13 1012.9 - 0.4
23/07:30am 10.3 6.8 5.3 71 2.3 N 13 17 7 9 1012.9 - 0.4
23/07:00am 10.0 5.5 4.4 68 2.5 NNW 17 22 9 12 1012.6 - 0.4
23/06:30am 10.2 5.4 4.8 69 2.4 N 19 24 10 13 1012.6 - 0.4
23/06:00am 10.5 7.0 5.3 70 2.4 N 13 20 7 11 1012.8 1012.8 0.4
23/05:30am 10.3 5.8 4.2 66 2.7 N 17 20 9 11 1012.8 - 0.4
23/05:00am 11.2 4.9 4.0 61 3.2 NW 26 30 14 16 1012.7 - 0.4
23/04:30am 11.3 5.1 4.3 62 3.2 WNW 26 32 14 17 1012.7 - 0.4
23/04:00am 11.3 5.9 4.5 63 3.1 WNW 22 32 12 17 1012.7 - 0.4
23/03:30am 11.6 6.3 4.8 63 3.1 WNW 22 30 12 16 1012.5 - 0.4
23/03:00am 11.7 5.3 5.1 64 3.0 W 28 35 15 19 1012.6 1012.6 0.4
23/02:30am 11.8 3.6 5.0 63 3.1 W 37 48 20 26 1012.2 - 0.4
23/02:00am 11.9 4.3 5.8 66 2.9 W 35 48 19 26 1012.4 - 0.4
23/01:30am 12.0 4.2 5.0 62 3.2 WNW 35 46 19 25 1012.2 - 0.4
23/01:00am 11.8 4.1 5.2 64 3.0 WNW 35 44 19 24 1012.2 - 0.4
23/12:30am 11.9 4.7 5.1 63 3.1 WNW 32 43 17 23 1012.4 - 0.4
23/12:00am 11.7 4.3 6.6 71 2.4 WNW 35 44 19 24 1012.3 1012.3 0.4
 
Date/Time
EST
Temp
°C
App
Temp
°C
Dew
Point
Rel
Hum
%
Delta-T
°C
Wind Press
QNH
hPa
Press
MSL
hPa
Rain
since 9 am
mm
Dir
 
Spd
km/h
Gust
km/h
Spd
kts
Gust
kts
22/11:50pm 11.8 5.4 6.9 72 2.3 WNW 30 43 16 23 1012.2 - 0.4
22/11:30pm 11.0 7.1 6.9 76 2.0 NW 17 22 9 12 1012.4 - 0.4
22/11:00pm 11.2 7.8 7.5 78 1.8 W 15 20 8 11 1012.5 - 0.4
22/10:30pm 11.6 7.2 7.5 76 2.0 W 20 24 11 13 1012.3 - 0.4
22/10:00pm 11.5 5.6 7.4 76 2.0 WNW 28 35 15 19 1012.1 - 0.4
22/09:30pm 12.4 5.7 7.3 71 2.5 W 32 39 17 21 1011.7 - 0.4
22/09:00pm 12.3 8.8 7.2 71 2.5 W 15 24 8 13 1011.3 1011.3 0.4
22/08:30pm 13.0 7.0 5.4 60 3.6 WNW 26 37 14 20 1011.0 - 0.4
22/08:00pm 13.1 7.0 5.0 58 3.8 WNW 26 37 14 20 1010.4 - 0.4
22/07:30pm 13.1 5.2 6.2 63 3.3 W 37 48 20 26 1010.1 - 0.4
22/07:00pm 13.2 4.8 5.4 59 3.7 WNW 39 48 21 26 1009.7 - 0.4
22/06:30pm 13.2 6.2 6.1 62 3.4 WNW 32 41 17 22 1009.7 - 0.4
22/06:14pm 13.2 7.0 6.1 62 3.4 WNW 28 46 15 25 1009.6 - 0.4
22/06:00pm 13.1 7.0 6.7 65 3.1 WNW 28 39 15 21 1009.6 1009.6 0.4
22/05:30pm 13.6 4.7 6.9 64 3.3 WNW 43 52 23 28 1008.9 - 0.4
22/05:00pm 14.1 6.7 6.7 61 3.6 WNW 35 50 19 27 1008.3 - 0.4
22/04:49pm 14.0 7.4 5.9 58 3.9 WNW 30 48 16 26 1008.3 - 0.4
22/04:30pm 14.5 5.5 4.8 52 4.5 WNW 41 54 22 29 1007.8 - 0.4
22/04:00pm 14.6 3.5 4.6 51 4.7 WNW 52 70 28 38 1007.2 - 0.4
22/03:30pm 14.5 3.3 4.2 50 4.8 WNW 52 70 28 38 1006.9 - 0.4
22/03:00pm 13.9 5.1 5.5 57 4.0 WNW 41 59 22 32 1007.4 1007.4 0.4
22/02:52pm 13.9 5.4 5.0 55 4.2 WNW 39 57 21 31 1007.3 - 0.4
22/02:30pm 14.0 4.3 5.9 58 3.9 WNW 46 57 25 31 1007.2 - 0.4
22/02:00pm 15.6 7.1 7.1 57 4.2 WNW 41 50 22 27 1007.1 - 0.4
22/01:30pm 16.2 9.5 7.4 56 4.4 W 32 41 17 22 1007.1 - 0.4
22/01:00pm 15.0 8.1 7.1 59 3.9 W 33 44 18 24 1006.9 - 0.4
22/12:30pm 14.4 7.4 8.6 68 2.9 W 35 50 19 27 1006.7 - 0.4
22/12:27pm 13.9 6.1 8.3 69 2.8 W 39 57 21 31 1006.6 - 0.4
22/12:00pm 13.1 3.7 8.8 75 2.2 W 48 65 26 35 1006.2 1006.2 0.4
22/11:33am 13.6 4.0 9.6 77 2.1 W 50 69 27 37 1005.9 - 0.4
22/11:30am 13.6 3.6 9.5 76 2.1 W 52 69 28 37 1005.9 - 0.4
22/11:00am 13.6 6.2 9.8 78 2.0 WSW 39 59 21 32 1005.9 - 0.0
22/10:30am 14.8 8.7 10.4 75 2.3 W 33 44 18 24 1005.4 - 0.0
22/10:00am 15.3 9.4 9.0 66 3.2 W 30 39 16 21 1004.9 - 0.0
22/09:30am 15.0 10.6 9.1 68 3.0 W 22 32 12 17 1004.7 - 0.0
22/09:10am 14.1 12.0 9.9 76 2.2 NW 11 41 6 22 1004.8 - 0.0
22/09:00am 14.5 7.6 10.3 76 2.2 W 37 50 20 27 1004.9 1004.9 2.4
22/08:53am 15.1 9.8 9.7 70 2.8 WNW 28 46 15 25 1004.8 - 2.4
22/08:30am 15.5 10.1 9.4 67 3.2 W 28 35 15 19 1004.6 - 2.4
22/08:00am 15.4 11.1 9.3 67 3.1 WNW 22 33 12 18 1004.2 - 2.4
22/07:34am 15.4 9.1 9.1 66 3.2 W 32 50 17 27 1003.7 - 2.4
22/07:30am 15.6 8.8 9.3 66 3.3 W 35 50 19 27 1003.6 - 2.4
22/07:00am 15.3 9.4 10.3 72 2.6 W 32 39 17 21 1003.3 - 2.4
22/06:30am 15.4 9.8 10.0 70 2.8 WNW 30 39 16 21 1003.1 - 2.4
22/06:00am 15.2 10.8 10.4 73 2.5 WNW 24 33 13 18 1002.8 1002.7 2.4
22/05:30am 14.5 12.3 10.9 79 1.9 NW 13 19 7 10 1002.5 - 2.4
22/05:00am 13.9 11.4 11.1 83 1.5 N 15 30 8 16 1002.2 - 2.4
22/04:30am 12.7 8.7 10.4 86 1.2 N 22 32 12 17 1001.5 - 2.4
22/04:00am 12.9 9.2 10.3 84 1.3 N 20 32 11 17 1001.3 - 2.4
22/03:30am 12.7 9.0 10.1 84 1.3 N 20 30 11 16 1000.9 - 2.4
22/03:00am 12.0 8.8 10.1 88 1.0 NNE 17 26 9 14 1000.9 1000.9 2.4
22/02:30am 11.5 7.3 9.8 89 0.9 NNE 22 32 12 17 1001.3 - 2.4
22/02:00am 11.4 7.8 9.7 89 0.9 NNE 19 28 10 15 1001.8 - 2.4
22/01:30am 11.3 8.8 9.7 90 0.8 N 13 20 7 11 1002.4 - 2.4
22/01:00am 11.0 7.3 9.6 91 0.7 NNE 19 26 10 14 1002.7 - 2.4
22/12:30am 10.9 7.6 9.5 91 0.7 N 17 26 9 14 1003.7 - 2.0
22/12:00am 10.7 6.8 9.3 91 0.7 NNE 20 30 11 16 1004.6 1004.6 2.0
 
Date/Time
EST
Temp
°C
App
Temp
°C
Dew
Point
Rel
Hum
%
Delta-T
°C
Wind Press
QNH
hPa
Press
MSL
hPa
Rain
since 9 am
mm
Dir
 
Spd
km/h
Gust
km/h
Spd
kts
Gust
kts
21/11:30pm 10.4 6.6 9.0 91 0.7 NNE 19 30 10 16 1005.6 - 1.8
21/11:00pm 10.3 6.5 8.9 91 0.7 NE 19 26 10 14 1006.5 - 1.6

Other Formats:

Comma delimited format used in spreadsheet applications
http://www.bom.gov.au/fwo/IDT60801/IDT60801.95967.axf

JavaScript Object Notation format (JSON) in row-major order
http://www.bom.gov.au/fwo/IDT60801/IDT60801.95967.json